Time;durP1;ratioP1;P1;durP2;ratioP2;P2;SDS_P1;SDS_P2;PMS_P1;PMS_P2;Temp;Humidity;BMP_temperature;BMP_pressure;BME280_temperature;BME280_humidity;BME280_pressure;Samples;Min_cycle;Max_cycle;Signal;HPM_P1;HPM_P2
2023/01/15 00:01:18;;;;;;;20.17;3.45;;;6.50;99.90;;;;;;6154341;23;20013;-86
2023/01/15 00:03:44;;;;;;;17.30;3.40;;;6.00;99.90;;;;;;6129741;23;20056;-86
2023/01/15 00:06:10;;;;;;;18.58;2.92;;;6.70;99.90;;;;;;6154457;23;20009;-85
2023/01/15 00:08:35;;;;;;;13.98;3.30;;;6.70;99.90;;;;;;6155516;23;20014;-86
2023/01/15 00:11:05;;;;;;;15.25;3.15;;;6.30;99.90;;;;;;6153946;23;20025;-85
2023/01/15 00:13:30;;;;;;;13.80;2.90;;;6.60;99.90;;;;;;6153522;23;20017;-86
2023/01/15 00:16:06;;;;;;;13.25;2.65;;;6.60;99.90;;;;;;6155209;23;20480;-86
2023/01/15 00:18:32;;;;;;;14.82;2.85;;;6.00;99.90;;;;;;6155144;23;20053;-86
2023/01/15 00:20:59;;;;;;;16.95;2.88;;;6.00;99.90;;;;;;6128373;23;20345;-86
2023/01/15 00:28:58;;;;;;;14.32;3.25;;;6.30;99.90;;;;;;6155262;23;20025;-87
2023/01/15 00:31:24;;;;;;;14.02;3.22;;;5.90;99.90;;;;;;6154964;23;20080;-86
2023/01/15 00:33:49;;;;;;;16.27;2.80;;;5.90;99.90;;;;;;6153731;23;20017;-86
2023/01/15 00:36:15;;;;;;;16.85;3.28;;;6.00;99.90;;;;;;6128158;23;20010;-87
2023/01/15 00:38:40;;;;;;;19.23;3.67;;;6.00;99.90;;;;;;6129014;23;20009;-87
2023/01/15 00:41:06;;;;;;;15.07;3.55;;;6.00;99.90;;;;;;6127893;23;20013;-87
2023/01/15 00:43:32;;;;;;;13.40;2.63;;;6.00;99.90;;;;;;6154779;23;20048;-86
2023/01/15 00:45:57;;;;;;;17.35;3.50;;;6.00;99.90;;;;;;6154273;23;20068;-87
2023/01/15 00:48:23;;;;;;;23.98;3.53;;;6.00;99.90;;;;;;6153636;23;20041;-87
2023/01/15 00:50:48;;;;;;;21.50;3.38;;;5.90;99.90;;;;;;6129763;23;20038;-87
2023/01/15 00:53:14;;;;;;;16.40;2.80;;;5.90;99.90;;;;;;6155221;23;20009;-86
2023/01/15 00:55:40;;;;;;;12.25;2.70;;;6.00;99.90;;;;;;6155144;23;20014;-87
2023/01/15 00:58:05;;;;;;;15.52;3.38;;;5.90;99.90;;;;;;6130503;23;20023;-87
2023/01/15 01:00:31;;;;;;;13.43;3.40;;;5.90;99.90;;;;;;6155412;23;20013;-84
2023/01/15 01:02:56;;;;;;;15.50;3.10;;;5.90;99.90;;;;;;6157091;23;20019;-86
2023/01/15 01:05:22;;;;;;;15.35;3.05;;;5.90;99.90;;;;;;6131397;23;20016;-87
2023/01/15 01:07:47;;;;;;;18.67;3.30;;;5.90;99.90;;;;;;6155876;23;20077;-87
2023/01/15 01:10:14;;;;;;;16.25;3.33;;;6.60;99.90;;;;;;6157209;23;20291;-86
2023/01/15 01:12:40;;;;;;;16.25;3.33;;;6.00;99.90;;;;;;6156214;23;20036;-87
2023/01/15 01:15:06;;;;;;;12.98;3.22;;;6.00;99.90;;;;;;6132087;23;20551;-87
2023/01/15 01:17:32;;;;;;;19.75;3.25;;;6.00;99.90;;;;;;6131629;23;20018;-87
2023/01/15 01:19:58;;;;;;;14.98;3.40;;;6.60;99.90;;;;;;6155365;23;20310;-85
2023/01/15 01:22:23;;;;;;;15.73;3.30;;;6.00;99.90;;;;;;6155916;23;20092;-85
2023/01/15 01:24:49;;;;;;;18.83;3.42;;;6.10;99.90;;;;;;6154626;23;20088;-87
2023/01/15 01:27:17;;;;;;;25.98;3.47;;;6.10;99.90;;;;;;6154897;23;20099;-87
2023/01/15 01:29:43;;;;;;;19.77;3.50;;;6.10;99.90;;;;;;6156820;23;20077;-86
2023/01/15 01:32:09;;;;;;;16.38;3.05;;;6.00;99.90;;;;;;6157328;23;20018;-86
2023/01/15 01:34:34;;;;;;;22.10;3.42;;;6.20;99.90;;;;;;6131097;23;20055;-87
2023/01/15 01:37:00;;;;;;;14.70;3.47;;;6.60;99.90;;;;;;6154815;23;20025;-85
2023/01/15 01:39:25;;;;;;;14.35;3.47;;;6.00;99.90;;;;;;6154781;23;20020;-85
2023/01/15 01:41:51;;;;;;;17.10;3.10;;;6.00;99.90;;;;;;6130588;23;20074;-88
2023/01/15 01:44:32;;;;;;;19.65;3.95;;;6.00;99.90;;;;;;6155991;23;20119;-87
2023/01/15 01:47:00;;;;;;;23.60;4.40;;;6.10;99.90;;;;;;6154955;23;20010;-87
2023/01/15 01:49:26;;;;;;;21.73;3.60;;;6.10;99.90;;;;;;6155686;23;20385;-87
2023/01/15 01:52:18;;;;;;;14.65;3.05;;;6.00;99.90;;;;;;6157904;23;20048;-88
2023/01/15 01:54:46;;;;;;;22.02;4.07;;;6.00;99.90;;;;;;6155004;23;20045;-88
2023/01/15 01:57:12;;;;;;;22.20;3.40;;;6.00;99.90;;;;;;6131214;23;20037;-87
2023/01/15 01:59:38;;;;;;;20.05;3.88;;;5.90;99.90;;;;;;6131817;23;20044;-87
2023/01/15 02:02:04;;;;;;;21.50;3.30;;;5.90;99.90;;;;;;6155292;23;20441;-87
2023/01/15 02:04:30;;;;;;;16.13;3.40;;;5.90;99.90;;;;;;6156098;23;20020;-87
2023/01/15 02:06:58;;;;;;;16.80;3.28;;;5.90;99.90;;;;;;6130897;23;20010;-87
2023/01/15 02:09:24;;;;;;;20.23;3.50;;;5.90;99.90;;;;;;6156052;23;20052;-87
2023/01/15 02:11:55;;;;;;;20.00;4.18;;;5.90;99.90;;;;;;6155982;23;20036;-88
2023/01/15 02:14:58;;;;;;;20.95;3.40;;;6.20;99.90;;;;;;6158221;23;20013;-87
2023/01/15 02:17:45;;;;;;;16.40;3.70;;;5.90;99.90;;;;;;6111902;23;20032;-88
2023/01/15 02:20:20;;;;;;;17.92;4.28;;;5.90;99.90;;;;;;6156175;23;20345;-87
2023/01/15 02:23:18;;;;;;;25.58;3.70;;;5.90;99.90;;;;;;6155798;23;20024;-87
2023/01/15 02:25:49;;;;;;;16.67;3.28;;;5.90;99.90;;;;;;6130587;23;20104;-88
2023/01/15 02:28:26;;;;;;;19.25;3.53;;;5.90;99.90;;;;;;6131907;23;20100;-88
2023/01/15 02:31:06;;;;;;;20.05;4.00;;;5.90;99.90;;;;;;6130593;23;20064;-88
2023/01/15 02:33:37;;;;;;;20.10;3.63;;;5.80;99.90;;;;;;6155378;23;20076;-88
2023/01/15 02:36:06;;;;;;;16.55;3.92;;;5.80;99.90;;;;;;6132380;23;20028;-87
2023/01/15 02:38:36;;;;;;;20.90;4.53;;;5.80;99.90;;;;;;6155012;23;20041;-88
2023/01/15 02:41:04;;;;;;;17.58;3.38;;;5.90;99.90;;;;;;6131151;23;20009;-87
2023/01/15 02:43:34;;;;;;;20.65;4.03;;;5.90;99.90;;;;;;6156571;23;20063;-88
2023/01/15 02:46:02;;;;;;;21.98;4.10;;;5.90;99.90;;;;;;6132053;23;20028;-88
2023/01/15 02:48:30;;;;;;;16.02;3.28;;;5.90;99.90;;;;;;6158837;23;20016;-87
2023/01/15 02:51:13;;;;;;;12.98;3.70;;;6.00;99.90;;;;;;6131873;23;20344;-88
2023/01/15 02:53:41;;;;;;;22.15;3.72;;;6.00;99.90;;;;;;6131082;23;20024;-88
2023/01/15 02:56:12;;;;;;;23.75;4.18;;;6.00;99.90;;;;;;6156720;23;20036;-88
2023/01/15 02:58:40;;;;;;;17.83;3.67;;;6.00;99.90;;;;;;6155926;23;20437;-88
2023/01/15 03:01:12;;;;;;;16.95;3.88;;;6.00;99.90;;;;;;6157689;23;20028;-88
2023/01/15 03:03:50;;;;;;;21.40;4.85;;;6.00;99.90;;;;;;6155242;23;20428;-88
2023/01/15 03:06:35;;;;;;;15.32;3.15;;;6.00;99.90;;;;;;6130246;23;20014;-88
2023/01/15 03:09:01;;;;;;;19.70;4.18;;;6.00;99.90;;;;;;6156156;23;20006;-88
2023/01/15 03:11:27;;;;;;;24.35;3.83;;;6.00;99.90;;;;;;6154930;23;20013;-87
2023/01/15 03:14:25;;;;;;;17.58;4.00;;;6.00;99.90;;;;;;6130021;23;20452;-87
2023/01/15 03:17:06;;;;;;;18.42;4.25;;;6.00;99.90;;;;;;6131064;23;20016;-88
2023/01/15 03:19:44;;;;;;;21.63;3.83;;;6.00;99.90;;;;;;6131670;23;20018;-88
2023/01/15 03:22:22;;;;;;;21.77;4.13;;;6.40;99.90;;;;;;6155275;23;20092;-88
2023/01/15 03:25:08;;;;;;;21.75;4.57;;;5.90;99.90;;;;;;6156573;23;20013;-88
2023/01/15 03:27:34;;;;;;;17.23;3.40;;;5.90;99.90;;;;;;6131482;23;20087;-88
2023/01/15 03:30:08;;;;;;;21.25;3.60;;;5.90;99.90;;;;;;6131441;23;20022;-88
2023/01/15 03:32:34;;;;;;;22.55;4.20;;;5.80;99.90;;;;;;6156032;23;20014;-88
2023/01/15 03:35:02;;;;;;;17.90;3.83;;;5.80;99.90;;;;;;6131471;23;20072;-88
2023/01/15 03:37:28;;;;;;;21.80;4.07;;;5.80;99.90;;;;;;6155324;23;20056;-88
2023/01/15 03:39:56;;;;;;;24.13;4.55;;;5.80;99.90;;;;;;6133313;23;20045;-88
2023/01/15 03:42:45;;;;;;;19.42;3.83;;;5.80;99.90;;;;;;6132663;23;20017;-88
2023/01/15 03:45:29;;;;;;;23.83;4.82;;;5.80;99.90;;;;;;6155913;23;20424;-88
2023/01/15 03:48:08;;;;;;;21.90;3.72;;;5.80;99.90;;;;;;6131276;23;20121;-87
2023/01/15 03:50:48;;;;;;;19.48;4.60;;;5.80;99.90;;;;;;6130685;23;20013;-87
2023/01/15 03:53:35;;;;;;;18.25;3.40;;;5.80;99.90;;;;;;6156260;23;20013;-87
2023/01/15 03:56:13;;;;;;;19.17;3.58;;;5.80;99.90;;;;;;6131827;23;20045;-89
2023/01/15 03:58:47;;;;;;;18.85;3.47;;;5.80;99.90;;;;;;6155180;23;20014;-88
2023/01/15 04:01:17;;;;;;;23.42;3.85;;;5.80;99.90;;;;;;6130627;23;20076;-88
2023/01/15 04:03:44;;;;;;;19.05;3.70;;;6.20;99.90;;;;;;6156232;23;20018;-88
2023/01/15 04:06:10;;;;;;;20.08;4.20;;;5.80;99.90;;;;;;6131757;23;20067;-88
2023/01/15 04:08:42;;;;;;;23.10;4.72;;;5.80;99.90;;;;;;6130690;23;20005;-88
2023/01/15 04:11:07;;;;;;;22.40;4.30;;;5.80;99.90;;;;;;6131684;23;20399;-88
2023/01/15 04:13:33;;;;;;;23.40;3.80;;;5.80;99.90;;;;;;6156928;23;20024;-88
2023/01/15 04:15:59;;;;;;;21.35;3.75;;;5.80;99.90;;;;;;6130611;23;20031;-89
2023/01/15 04:18:25;;;;;;;19.08;4.45;;;5.80;99.90;;;;;;6131384;23;20032;-89
2023/01/15 04:20:51;;;;;;;21.58;3.88;;;5.80;99.90;;;;;;6131497;23;20088;-89
2023/01/15 04:23:16;;;;;;;22.13;3.90;;;5.80;99.90;;;;;;6131639;23;20515;-88
2023/01/15 04:25:42;;;;;;;22.10;4.28;;;5.80;99.90;;;;;;6133456;23;20020;-89
2023/01/15 04:28:08;;;;;;;17.38;3.90;;;5.80;99.90;;;;;;6134246;23;20048;-87
2023/01/15 04:30:35;;;;;;;21.50;4.20;;;6.00;99.90;;;;;;6158293;23;20005;-88
2023/01/15 04:33:00;;;;;;;24.98;4.53;;;5.70;99.90;;;;;;6158719;23;20021;-88
2023/01/15 04:35:26;;;;;;;15.20;3.50;;;5.70;99.90;;;;;;6133489;23;20013;-89
2023/01/15 04:37:56;;;;;;;16.85;3.78;;;5.60;99.90;;;;;;6133434;23;20445;-89
2023/01/15 04:45:54;;;;;;;17.58;3.33;;;5.70;99.90;;;;;;6157925;23;20045;-87
2023/01/15 04:48:20;;;;;;;17.88;3.40;;;5.70;99.90;;;;;;6159039;23;20311;-87
2023/01/15 04:50:45;;;;;;;21.90;3.42;;;5.70;99.90;;;;;;6133785;23;20092;-88
2023/01/15 04:53:11;;;;;;;20.88;3.97;;;5.60;99.90;;;;;;6157705;23;20024;-88
2023/01/15 04:55:37;;;;;;;21.40;3.72;;;5.80;99.90;;;;;;6132559;23;20017;-88
2023/01/15 04:58:02;;;;;;;12.70;3.10;;;5.60;99.90;;;;;;6158493;23;20014;-88
2023/01/15 05:00:28;;;;;;;21.38;3.55;;;5.60;99.90;;;;;;6158000;23;20028;-88
2023/01/15 05:02:54;;;;;;;17.75;4.40;;;5.60;99.90;;;;;;6132088;23;20017;-88
2023/01/15 05:05:19;;;;;;;23.75;3.72;;;5.60;99.90;;;;;;6132380;23;20018;-89
2023/01/15 05:07:45;;;;;;;24.52;3.88;;;5.70;99.90;;;;;;6133110;23;20017;-89
2023/01/15 05:10:10;;;;;;;23.48;3.97;;;5.50;99.90;;;;;;6157273;23;20009;-89
2023/01/15 05:12:36;;;;;;;24.65;3.50;;;5.50;99.90;;;;;;6158494;23;20018;-90
2023/01/15 05:15:02;;;;;;;18.25;3.90;;;5.60;99.90;;;;;;6134493;23;20065;-89
2023/01/15 05:17:28;;;;;;;18.55;4.05;;;5.00;99.90;;;;;;6133790;23;20389;-89
2023/01/15 05:19:53;;;;;;;20.63;3.85;;;5.40;99.90;;;;;;6157588;23;20025;-89
2023/01/15 05:22:19;;;;;;;19.40;4.13;;;6.10;99.90;;;;;;6160567;23;20029;-90
2023/01/15 05:24:44;;;;;;;21.73;3.40;;;5.40;99.90;;;;;;6160752;23;20052;-90
2023/01/15 05:27:10;;;;;;;17.10;3.40;;;6.10;99.90;;;;;;6134190;23;20013;-89
2023/01/15 05:29:36;;;;;;;19.90;3.92;;;4.90;99.90;;;;;;6159263;23;20013;-90
2023/01/15 05:32:02;;;;;;;18.77;3.50;;;5.40;99.90;;;;;;6160849;23;20021;-90
2023/01/15 05:34:27;;;;;;;23.55;4.22;;;5.40;99.90;;;;;;6135657;23;20428;-90
2023/01/15 05:36:53;;;;;;;17.58;3.13;;;6.10;99.90;;;;;;6133898;23;20014;-88
2023/01/15 05:39:19;;;;;;;14.07;3.17;;;6.10;99.90;;;;;;6134272;23;20089;-89
2023/01/15 05:41:50;;;;;;;22.15;4.20;;;6.00;99.90;;;;;;6133368;23;20173;-89
2023/01/15 05:44:19;;;;;;;24.77;4.28;;;5.30;99.90;;;;;;6133977;23;20397;-89
2023/01/15 05:46:46;;;;;;;18.67;3.85;;;5.70;99.90;;;;;;6133089;23;20028;-89
2023/01/15 05:49:16;;;;;;;15.45;3.28;;;5.80;99.90;;;;;;6157678;23;20013;-87
2023/01/15 05:51:42;;;;;;;13.85;2.95;;;5.30;99.90;;;;;;6157640;23;20462;-89
2023/01/15 05:54:12;;;;;;;13.55;3.53;;;6.10;99.90;;;;;;6133120;23;20014;-88
2023/01/15 05:56:38;;;;;;;19.27;3.47;;;5.20;99.90;;;;;;6157446;23;20101;-87
2023/01/15 05:59:05;;;;;;;21.90;3.67;;;5.70;99.90;;;;;;6133511;23;20010;-89
2023/01/15 06:01:31;;;;;;;14.05;3.03;;;6.00;99.90;;;;;;6132657;23;20014;-89
2023/01/15 06:03:59;;;;;;;15.50;3.13;;;5.30;99.90;;;;;;6134648;23;20011;-89
2023/01/15 06:06:25;;;;;;;17.60;3.50;;;5.90;99.90;;;;;;6158118;23;20005;-88
2023/01/15 06:08:50;;;;;;;16.17;3.22;;;5.90;99.90;;;;;;6133230;23;20017;-89
2023/01/15 06:11:16;;;;;;;20.77;4.63;;;5.10;99.90;;;;;;6159328;23;20018;-89
2023/01/15 06:13:41;;;;;;;13.15;3.13;;;5.80;99.90;;;;;;6133099;23;20045;-89
2023/01/15 06:16:09;;;;;;;17.92;3.33;;;5.80;99.90;;;;;;6159639;23;20017;-90
2023/01/15 06:18:36;;;;;;;17.15;3.78;;;5.90;99.90;;;;;;6132795;23;20448;-89
2023/01/15 06:21:04;;;;;;;15.48;3.10;;;5.00;99.90;;;;;;6133586;23;20035;-90
2023/01/15 06:23:31;;;;;;;14.27;3.22;;;5.00;99.90;;;;;;6157147;23;20018;-89
2023/01/15 06:26:00;;;;;;;18.65;3.25;;;4.90;99.90;;;;;;6158401;23;20013;-89
2023/01/15 06:28:26;;;;;;;19.35;3.65;;;5.60;99.90;;;;;;6156450;23;20451;-89
2023/01/15 06:30:52;;;;;;;17.52;3.72;;;4.90;99.90;;;;;;6157426;23;20041;-89
2023/01/15 06:33:18;;;;;;;14.98;3.38;;;5.30;99.90;;;;;;6133016;23;20013;-91
2023/01/15 06:35:43;;;;;;;13.15;3.17;;;5.20;99.90;;;;;;6157529;23;20010;-90
2023/01/15 06:38:09;;;;;;;17.88;3.40;;;5.70;99.90;;;;;;6132938;23;20068;-90
2023/01/15 06:40:35;;;;;;;21.88;4.18;;;5.60;99.90;;;;;;6154294;23;20053;-90
2023/01/15 06:48:29;;;;;;;22.60;3.90;;;4.80;99.90;;;;;;6155880;23;20018;-89
2023/01/15 06:50:55;;;;;;;16.33;3.42;;;4.80;99.90;;;;;;6155884;23;20044;-90
2023/01/15 06:53:24;;;;;;;19.85;4.18;;;4.80;99.90;;;;;;6129599;23;20501;-90
2023/01/15 06:55:50;;;;;;;21.20;4.10;;;4.80;99.90;;;;;;6129029;23;20143;-89
2023/01/15 06:58:16;;;;;;;22.92;3.78;;;5.30;99.90;;;;;;6153657;23;20021;-88
2023/01/15 07:00:43;;;;;;;17.27;3.15;;;4.70;99.90;;;;;;6154107;23;20316;-89
2023/01/15 07:03:12;;;;;;;18.10;4.05;;;4.70;99.90;;;;;;6128995;23;20053;-89
2023/01/15 07:05:39;;;;;;;16.20;3.95;;;4.70;99.90;;;;;;6128753;23;20321;-90
2023/01/15 07:08:04;;;;;;;17.42;3.97;;;4.70;99.90;;;;;;6128809;23;20020;-89
2023/01/15 07:10:32;;;;;;;19.13;3.55;;;4.70;99.90;;;;;;6153884;23;20313;-89
2023/01/15 07:12:57;;;;;;;15.45;3.10;;;4.60;99.90;;;;;;6152929;23;20188;-89
2023/01/15 07:15:23;;;;;;;20.48;3.58;;;4.60;99.90;;;;;;6129365;23;20018;-90
2023/01/15 07:17:52;;;;;;;16.85;3.50;;;4.60;99.90;;;;;;6129554;23;20361;-87
2023/01/15 07:20:20;;;;;;;14.95;3.15;;;4.60;99.90;;;;;;6128900;23;20010;-90
2023/01/15 07:22:48;;;;;;;15.18;3.10;;;4.70;99.90;;;;;;6129088;23;20453;-87
2023/01/15 07:25:13;;;;;;;13.35;2.97;;;4.70;99.90;;;;;;6151877;23;20072;-87
2023/01/15 07:27:39;;;;;;;15.95;2.88;;;4.70;99.90;;;;;;6153591;23;20436;-87
2023/01/15 07:30:05;;;;;;;16.55;3.20;;;4.70;99.90;;;;;;6153824;23;20009;-85
2023/01/15 07:32:31;;;;;;;20.67;3.53;;;4.60;99.90;;;;;;6153386;23;20017;-90
2023/01/15 07:34:56;;;;;;;15.20;3.30;;;4.70;99.90;;;;;;6129581;23;20009;-91
2023/01/15 07:37:22;;;;;;;17.23;3.58;;;4.60;99.90;;;;;;6154426;23;20013;-87
2023/01/15 07:39:48;;;;;;;14.73;3.22;;;5.60;99.90;;;;;;6129229;23;20013;-88
2023/01/15 07:50:26;;;;;;;14.35;3.15;;;4.80;99.90;;;;;;6152836;23;20154;-87
2023/01/15 07:52:51;;;;;;;17.13;3.58;;;4.80;99.90;;;;;;6151291;23;20010;-88
2023/01/15 07:55:17;;;;;;;18.13;2.80;;;4.80;99.90;;;;;;6125995;23;20020;-88
2023/01/15 07:57:43;;;;;;;15.10;3.08;;;4.80;99.90;;;;;;6151043;23;20010;-88
2023/01/15 08:00:15;;;;;;;16.05;3.42;;;4.80;99.90;;;;;;6150446;23;20120;-89
2023/01/15 08:02:41;;;;;;;13.65;3.75;;;4.70;99.90;;;;;;6127537;23;20049;-89
2023/01/15 08:05:08;;;;;;;12.73;2.83;;;4.80;99.90;;;;;;6128240;23;20009;-89
2023/01/15 08:07:38;;;;;;;14.43;2.70;;;4.70;99.90;;;;;;6152749;23;20009;-88
2023/01/15 08:10:04;;;;;;;11.93;2.85;;;4.70;99.90;;;;;;6126567;23;20024;-88
2023/01/15 08:15:13;;;;;;;;;;;4.70;99.90;;;;;;6152986;23;20026;-88
2023/01/15 08:17:50;;;;;;;10.43;2.75;;;4.80;99.90;;;;;;6128272;23;19913;-89
2023/01/15 08:20:22;;;;;;;14.52;3.00;;;4.80;99.90;;;;;;6153351;23;20445;-89
2023/01/15 08:22:48;;;;;;;14.27;2.65;;;5.00;99.90;;;;;;6152541;23;20018;-89
2023/01/15 08:25:17;;;;;;;10.55;2.78;;;4.70;99.90;;;;;;6159539;23;20337;-88
2023/01/15 08:27:43;;;;;;;18.52;3.42;;;4.70;99.90;;;;;;6129130;23;20096;-89
2023/01/15 08:30:18;;;;;;;13.73;2.95;;;4.80;99.90;;;;;;6153549;23;20020;-88
2023/01/15 08:32:44;;;;;;;19.02;3.85;;;4.90;99.90;;;;;;6128281;23;20009;-89
2023/01/15 08:35:11;;;;;;;15.20;3.08;;;5.00;99.90;;;;;;6152687;23;20447;-89
2023/01/15 08:37:38;;;;;;;15.70;3.13;;;5.70;99.90;;;;;;6128194;23;20329;-89
2023/01/15 08:40:04;;;;;;;10.50;2.22;;;5.90;99.90;;;;;;6152133;23;20029;-89
2023/01/15 08:42:30;;;;;;;12.73;3.10;;;5.30;99.90;;;;;;6127952;23;20021;-89
2023/01/15 08:44:56;;;;;;;13.50;2.70;;;5.70;99.90;;;;;;6153115;23;20021;-89
2023/01/15 08:47:21;;;;;;;12.50;2.85;;;6.00;99.90;;;;;;6128095;23;20013;-89
2023/01/15 08:49:47;;;;;;;13.40;3.08;;;5.70;99.90;;;;;;6153299;23;20032;-89
2023/01/15 08:52:13;;;;;;;17.65;3.20;;;6.00;99.90;;;;;;6154918;23;20021;-89
2023/01/15 08:54:39;;;;;;;16.35;3.60;;;5.30;99.90;;;;;;6128103;23;20050;-89
2023/01/15 08:57:05;;;;;;;16.63;3.53;;;5.50;99.90;;;;;;6152721;23;20032;-88
2023/01/15 08:59:30;;;;;;;21.40;3.33;;;5.40;99.90;;;;;;6128747;23;20009;-89
2023/01/15 09:01:56;;;;;;;23.52;4.28;;;5.10;99.90;;;;;;6153036;23;20328;-89
2023/01/15 09:04:21;;;;;;;20.52;3.47;;;5.50;99.90;;;;;;6128334;23;20068;-87
2023/01/15 09:06:48;;;;;;;20.48;3.50;;;5.10;99.90;;;;;;6153269;23;20006;-90
2023/01/15 09:09:14;;;;;;;17.30;3.25;;;5.80;99.90;;;;;;6153879;23;20013;-89
2023/01/15 09:11:40;;;;;;;14.38;2.97;;;5.00;99.90;;;;;;6131432;23;20016;-88
2023/01/15 09:14:11;;;;;;;12.23;2.60;;;5.30;99.90;;;;;;6161110;23;20084;-88
2023/01/15 09:16:38;;;;;;;15.18;2.90;;;4.90;99.90;;;;;;6135048;23;20013;-89
2023/01/15 09:19:05;;;;;;;18.08;3.35;;;5.50;99.90;;;;;;6132624;23;20018;-88
2023/01/15 09:21:31;;;;;;;16.98;3.05;;;5.80;99.90;;;;;;6129125;23;20148;-88
2023/01/15 09:23:56;;;;;;;14.18;2.90;;;5.10;99.90;;;;;;6129293;23;20325;-88
2023/01/15 09:26:35;;;;;;;16.08;2.92;;;4.90;99.90;;;;;;6129517;23;20009;-88
2023/01/15 09:29:01;;;;;;;19.33;2.90;;;4.90;99.90;;;;;;6154653;23;20010;-88
2023/01/15 09:31:27;;;;;;;16.00;3.63;;;4.90;99.90;;;;;;6154576;23;20009;-89
2023/01/15 09:33:53;;;;;;;11.38;3.20;;;5.60;99.90;;;;;;6129623;23;20025;-89
2023/01/15 09:36:28;;;;;;;13.80;2.50;;;5.40;99.90;;;;;;6156003;23;20015;-89
2023/01/15 09:38:55;;;;;;;15.13;2.92;;;4.90;99.90;;;;;;6129250;23;20432;-88
2023/01/15 09:44:19;;;;;;;12.60;3.28;;;5.40;99.90;;;;;;6153937;23;20105;-88
2023/01/15 09:47:16;;;;;;;11.63;3.35;;;4.90;99.90;;;;;;6154451;23;20028;-88
2023/01/15 09:49:53;;;;;;;13.10;2.90;;;4.90;99.90;;;;;;6128813;23;20018;-88
2023/01/15 09:52:28;;;;;;;21.60;3.60;;;4.90;99.90;;;;;;6154400;23;20017;-88
2023/01/15 09:55:07;;;;;;;14.82;3.05;;;4.90;99.90;;;;;;6129425;23;20060;-88
2023/01/15 09:57:35;;;;;;;13.02;2.83;;;4.90;99.90;;;;;;6154980;23;20014;-88
2023/01/15 10:00:04;;;;;;;19.77;3.20;;;5.10;99.90;;;;;;6164792;23;20013;-89
2023/01/15 10:03:03;;;;;;;19.42;3.22;;;5.10;99.90;;;;;;6158158;23;20068;-88
2023/01/15 10:06:02;;;;;;;15.05;3.30;;;5.20;99.90;;;;;;6148794;23;20088;-88
2023/01/15 10:08:39;;;;;;;15.43;2.80;;;5.10;99.90;;;;;;6129413;23;20017;-89
2023/01/15 10:11:21;;;;;;;14.82;3.30;;;5.10;99.90;;;;;;6154464;23;20061;-89
2023/01/15 10:14:08;;;;;;;16.77;3.35;;;5.20;99.90;;;;;;6154083;23;20009;-89
2023/01/15 10:16:35;;;;;;;15.45;3.22;;;5.20;99.90;;;;;;6129272;23;20025;-89
2023/01/15 10:19:01;;;;;;;15.32;3.53;;;5.30;99.90;;;;;;6129940;23;20017;-89
2023/01/15 10:21:44;;;;;;;19.08;3.80;;;5.40;99.90;;;;;;6129050;23;20014;-88
2023/01/15 10:24:38;;;;;;;16.75;3.13;;;5.40;99.90;;;;;;6153904;23;20088;-89
2023/01/15 10:27:26;;;;;;;16.00;3.80;;;5.50;99.90;;;;;;6129570;23;20009;-91
2023/01/15 10:30:05;;;;;;;15.27;3.40;;;5.60;99.90;;;;;;6128686;23;20408;-87
2023/01/15 10:33:04;;;;;;;19.48;3.42;;;5.60;99.90;;;;;;6126830;23;20013;-88
2023/01/15 10:35:44;;;;;;;13.82;2.70;;;5.70;99.90;;;;;;6131710;23;20028;-88
2023/01/15 10:38:16;;;;;;;13.27;3.28;;;5.60;99.90;;;;;;6135624;23;20021;-89
2023/01/15 10:40:47;;;;;;;12.77;3.05;;;5.60;99.90;;;;;;6157560;23;20013;-85
2023/01/15 10:43:33;;;;;;;18.65;4.45;;;5.80;99.90;;;;;;6133333;23;20090;-86
2023/01/15 10:46:02;;;;;;;15.82;3.30;;;5.60;99.90;;;;;;6132827;23;20045;-88
2023/01/15 10:48:41;;;;;;;25.92;3.95;;;5.60;99.90;;;;;;6142455;23;20052;-87
2023/01/15 10:51:32;;;;;;;19.65;3.88;;;5.70;99.90;;;;;;6134232;23;20103;-86
2023/01/15 10:54:11;;;;;;;19.77;3.35;;;5.90;99.90;;;;;;6134101;23;20080;-87
2023/01/15 10:56:43;;;;;;;21.45;4.10;;;6.00;99.90;;;;;;6158313;23;20013;-88
2023/01/15 10:59:23;;;;;;;15.67;3.57;;;6.60;99.90;;;;;;6132787;23;20023;-88
2023/01/15 11:01:52;;;;;;;15.73;3.35;;;6.00;99.90;;;;;;6134398;23;20241;-88
2023/01/15 11:04:17;;;;;;;16.88;3.03;;;6.10;99.90;;;;;;6132223;23;20017;-88
2023/01/15 11:06:46;;;;;;;12.07;3.58;;;6.10;99.90;;;;;;6158631;23;20056;-88
2023/01/15 11:09:30;;;;;;;20.17;4.28;;;6.50;99.90;;;;;;6159332;23;20084;-87
2023/01/15 11:20:43;;;;;;;15.50;3.08;;;5.90;99.90;;;;;;6159314;23;20018;-89
2023/01/15 11:23:12;;;;;;;17.27;3.22;;;5.80;99.90;;;;;;6158624;23;20022;-87
2023/01/15 11:25:47;;;;;;;17.70;3.55;;;5.70;99.90;;;;;;6133586;23;20014;-89
2023/01/15 11:28:14;;;;;;;17.30;3.30;;;5.80;99.90;;;;;;6159686;23;20013;-89
2023/01/15 11:30:40;;;;;;;22.50;4.05;;;5.80;99.90;;;;;;6159646;23;20045;-88
2023/01/15 11:33:25;;;;;;;18.77;3.78;;;5.90;99.90;;;;;;6137100;23;20017;-90
2023/01/15 11:35:59;;;;;;;19.67;5.05;;;5.90;99.90;;;;;;6162513;23;20021;-89
2023/01/15 11:38:30;;;;;;;17.08;4.05;;;6.10;99.90;;;;;;6163963;23;20040;-88
2023/01/15 11:40:59;;;;;;;19.10;3.53;;;6.10;99.90;;;;;;6133756;23;20088;-89
2023/01/15 11:52:09;;;;;;;18.52;3.60;;;6.60;99.90;;;;;;6157732;23;20260;-86
2023/01/15 11:54:42;;;;;;;22.83;4.18;;;6.70;99.90;;;;;;6156792;23;20053;-84
2023/01/15 11:57:09;;;;;;;20.10;4.90;;;6.70;99.90;;;;;;6134516;23;20142;-88
2023/01/15 11:59:35;;;;;;;25.50;4.30;;;7.00;99.90;;;;;;6132980;23;20337;-86
2023/01/15 12:02:11;;;;;;;21.45;3.55;;;6.90;99.90;;;;;;6158606;23;20006;-88
2023/01/15 12:04:52;;;;;;;24.13;4.95;;;7.40;99.90;;;;;;6156628;23;20014;-86
2023/01/15 12:07:17;;;;;;;17.17;3.78;;;7.10;99.90;;;;;;6132220;23;20158;-87
2023/01/15 12:10:13;;;;;;;13.43;3.13;;;7.10;99.90;;;;;;6156552;23;20333;-85
2023/01/15 12:12:58;;;;;;;18.17;3.55;;;7.20;99.90;;;;;;6131585;23;20044;-87
2023/01/15 12:15:53;;;;;;;21.67;3.83;;;7.10;99.90;;;;;;6154660;23;20018;-87
2023/01/15 12:18:46;;;;;;;13.93;3.42;;;7.00;99.90;;;;;;6154250;23;20018;-87
2023/01/15 12:21:35;;;;;;;17.75;4.07;;;7.10;99.90;;;;;;6131739;23;20104;-87
2023/01/15 12:24:31;;;;;;;16.27;3.45;;;7.00;99.90;;;;;;6131480;23;20013;-88
2023/01/15 12:27:18;;;;;;;17.88;3.58;;;7.10;99.90;;;;;;6131534;23;20005;-86
2023/01/15 12:30:08;;;;;;;18.27;3.70;;;7.20;99.90;;;;;;6131163;23;20020;-87
2023/01/15 12:32:40;;;;;;;17.90;3.75;;;7.30;99.90;;;;;;6132489;23;20073;-87
2023/01/15 12:35:25;;;;;;;14.63;3.00;;;7.30;99.90;;;;;;6159002;23;20010;-87
2023/01/15 12:37:55;;;;;;;17.77;3.58;;;7.30;99.90;;;;;;6156321;23;20399;-90
2023/01/15 12:40:39;;;;;;;20.60;4.07;;;7.30;99.90;;;;;;6156013;23;20014;-88
2023/01/15 12:46:01;;;;;;;13.50;3.20;;;7.20;99.90;;;;;;6157265;23;20027;-87
2023/01/15 12:48:55;;;;;;;18.30;3.53;;;7.30;99.90;;;;;;6135785;23;20028;-88
2023/01/15 12:51:28;;;;;;;19.70;4.28;;;7.10;99.90;;;;;;6134617;23;20088;-87
2023/01/15 12:54:03;;;;;;;16.02;3.90;;;7.10;99.90;;;;;;6160198;23;20013;-87
2023/01/15 12:56:47;;;;;;;19.80;5.25;;;7.10;99.90;;;;;;6158637;23;20017;-86
2023/01/15 12:59:30;;;;;;;17.50;3.50;;;7.10;99.90;;;;;;6157092;23;20017;-87
2023/01/15 13:02:26;;;;;;;19.90;3.92;;;7.00;99.90;;;;;;6155537;23;20021;-87
2023/01/15 13:05:14;;;;;;;16.25;3.95;;;7.00;99.90;;;;;;6120974;23;20310;-87
2023/01/15 13:07:49;;;;;;;21.08;4.45;;;6.90;99.90;;;;;;6159010;23;20013;-87
2023/01/15 13:10:26;;;;;;;16.50;3.80;;;6.80;99.90;;;;;;6162556;23;20314;-86
2023/01/15 13:13:01;;;;;;;23.35;5.95;;;6.70;99.90;;;;;;6133365;23;20083;-87
2023/01/15 13:15:34;;;;;;;23.08;4.93;;;6.70;99.90;;;;;;6131207;23;20103;-86
2023/01/15 13:18:21;;;;;;;16.13;3.85;;;6.60;99.90;;;;;;6155497;23;20017;-86
2023/01/15 13:20:50;;;;;;;19.98;3.45;;;6.40;99.90;;;;;;6130862;23;20041;-86
2023/01/15 13:23:34;;;;;;;14.10;2.83;;;6.30;99.90;;;;;;6130587;23;20018;-86
2023/01/15 13:26:26;;;;;;;19.25;3.22;;;6.00;99.90;;;;;;6157127;23;20086;-87
2023/01/15 13:29:16;;;;;;;13.68;3.03;;;5.90;99.90;;;;;;6155613;23;20010;-86
2023/01/15 13:31:54;;;;;;;11.95;3.03;;;5.80;99.90;;;;;;6130674;23;20041;-86
2023/01/15 13:34:30;;;;;;;12.60;2.70;;;5.70;99.90;;;;;;6131763;23;20083;-86
2023/01/15 13:37:12;;;;;;;11.93;2.20;;;6.00;99.90;;;;;;6155485;23;20068;-86
2023/01/15 13:39:41;;;;;;;9.13;2.67;;;5.70;99.90;;;;;;6130638;23;20033;-84
2023/01/15 13:42:32;;;;;;;9.25;2.20;;;5.60;99.90;;;;;;6154975;23;20512;-85
2023/01/15 13:45:25;;;;;;;7.38;2.08;;;5.60;99.90;;;;;;6129727;23;20045;-85
2023/01/15 13:47:54;;;;;;;11.38;2.40;;;5.60;99.90;;;;;;6154969;23;20018;-84
2023/01/15 13:50:32;;;;;;;11.65;2.25;;;5.70;99.90;;;;;;6130732;23;20014;-85
2023/01/15 13:53:12;;;;;;;8.77;2.13;;;5.60;99.90;;;;;;6131657;23;20014;-85
2023/01/15 13:55:42;;;;;;;7.75;2.15;;;5.60;99.90;;;;;;6133524;23;20010;-86
2023/01/15 13:58:19;;;;;;;10.07;2.58;;;5.60;99.90;;;;;;6155420;23;20028;-86
2023/01/15 14:00:45;;;;;;;7.47;1.90;;;5.60;99.90;;;;;;6131228;23;20345;-85